createdAt,value
2018-05-07T00:01:57.883Z,101998.12
2018-05-07T00:04:23.685Z,102007.02
2018-05-07T00:06:49.639Z,101999.55
2018-05-07T00:09:15.490Z,102003.44
2018-05-07T00:11:41.438Z,102007.25
2018-05-07T00:14:07.223Z,102011.77
2018-05-07T00:16:33.041Z,102005.89
2018-05-07T00:18:58.850Z,102008.09
2018-05-07T00:21:24.659Z,102011.63
2018-05-07T00:23:50.460Z,102002.30
2018-05-07T00:26:16.267Z,102005.08
2018-05-07T00:28:42.073Z,102005.02
2018-05-07T00:31:07.880Z,102004.98
2018-05-07T00:33:33.684Z,102001.17
2018-05-07T00:35:59.579Z,102005.87
2018-05-07T00:38:25.381Z,102006.03
2018-05-07T00:40:51.220Z,102006.36
2018-05-07T00:43:17.025Z,102000.51
2018-05-07T00:45:42.837Z,102006.02
2018-05-07T00:48:08.648Z,102007.48
2018-05-07T00:50:34.448Z,102006.73
2018-05-07T00:53:01.169Z,102010.28
2018-05-07T00:55:26.976Z,102007.76
2018-05-07T00:57:52.777Z,102006.02
2018-05-07T01:00:18.580Z,102007.76
2018-05-07T01:02:44.413Z,102011.60
2018-05-07T01:05:10.221Z,102007.14
2018-05-07T01:07:36.055Z,102014.28
2018-05-07T01:10:01.944Z,102017.42
2018-05-07T01:12:27.792Z,102024.48
2018-05-07T01:14:53.603Z,102015.04
2018-05-07T01:17:19.412Z,102014.16
2018-05-07T01:19:45.251Z,102013.05
2018-05-07T01:22:11.057Z,102017.83
2018-05-07T01:24:37.829Z,102017.93
2018-05-07T01:27:03.632Z,102017.13
2018-05-07T01:29:29.452Z,102019.11
2018-05-07T01:31:55.257Z,102018.55
2018-05-07T01:34:21.065Z,102018.87
2018-05-07T01:36:46.869Z,102019.50
2018-05-07T01:39:13.095Z,102017.61
2018-05-07T01:41:38.933Z,102023.08
2018-05-07T01:44:04.747Z,102021.67
2018-05-07T01:46:30.556Z,102017.20
2018-05-07T01:48:56.365Z,102028.45
2018-05-07T01:51:22.221Z,102019.25
2018-05-07T01:53:48.024Z,102019.22
2018-05-07T01:56:13.856Z,102016.40
2018-05-07T01:58:39.712Z,102012.02
2018-05-07T02:01:05.525Z,102013.02
2018-05-07T02:03:31.336Z,102025.48
2018-05-07T02:05:57.201Z,102014.09
2018-05-07T02:08:23.004Z,102022.83
2018-05-07T02:10:48.848Z,102026.98
2018-05-07T02:13:14.672Z,102022.97
2018-05-07T02:15:41.437Z,102025.77
2018-05-07T02:18:07.240Z,102019.36
2018-05-07T02:20:34.012Z,102025.92
2018-05-07T02:22:59.818Z,102026.13
2018-05-07T02:25:25.620Z,102030.36
2018-05-07T02:27:51.456Z,102024.88
2018-05-07T02:30:17.261Z,102027.11
2018-05-07T02:32:43.093Z,102027.27
2018-05-07T02:35:08.907Z,102023.67
2018-05-07T02:37:34.717Z,102024.47
2018-05-07T02:40:00.528Z,102021.98
2018-05-07T02:42:26.369Z,102024.66
2018-05-07T02:44:52.181Z,102027.08
2018-05-07T02:47:17.985Z,102019.77
2018-05-07T02:49:43.784Z,102015.92
2018-05-07T02:52:09.593Z,102013.06
2018-05-07T02:54:35.398Z,102009.37
2018-05-07T02:57:01.237Z,102005.96
2018-05-07T02:59:27.041Z,102010.31
2018-05-07T03:01:52.845Z,102003.72
2018-05-07T03:04:18.665Z,102006.59
2018-05-07T03:06:44.478Z,102006.26
2018-05-07T03:09:10.286Z,102000.16
2018-05-07T03:11:36.223Z,102005.23
2018-05-07T03:14:02.069Z,101999.07
2018-05-07T03:16:27.988Z,101999.09
2018-05-07T03:18:53.791Z,101998.44
2018-05-07T03:21:19.592Z,101997.25
2018-05-07T03:23:45.396Z,102004.23
2018-05-07T03:26:11.244Z,101998.86
2018-05-07T03:28:37.048Z,101990.53
2018-05-07T03:31:02.856Z,101995.63
2018-05-07T03:33:28.693Z,101998.02
2018-05-07T03:35:54.620Z,101997.80
2018-05-07T03:38:20.421Z,101994.70
2018-05-07T03:40:46.228Z,101985.87
2018-05-07T03:43:12.042Z,101978.41
2018-05-07T03:45:37.848Z,101985.02
2018-05-07T03:48:03.656Z,101983.59
2018-05-07T03:50:29.463Z,101990.63
2018-05-07T03:52:55.264Z,101983.83
2018-05-07T03:55:21.069Z,101979.68
2018-05-07T03:57:46.919Z,101985.02
2018-05-07T04:00:12.813Z,101987.84
2018-05-07T04:02:38.637Z,101985.87
2018-05-07T04:05:04.440Z,101981.09
2018-05-07T04:07:30.244Z,101981.60
2018-05-07T04:09:56.066Z,101981.53
2018-05-07T04:12:21.901Z,101978.34
2018-05-07T04:14:47.733Z,101975.94
2018-05-07T04:17:20.039Z,101978.06
2018-05-07T04:19:52.055Z,101980.64
2018-05-07T04:22:24.166Z,101982.08
2018-05-07T04:24:50.013Z,101978.89
2018-05-07T04:27:15.821Z,101977.56
2018-05-07T04:29:41.661Z,101980.33
2018-05-07T04:32:07.468Z,101981.00
2018-05-07T04:34:33.301Z,101982.80
2018-05-07T04:36:59.104Z,101983.63
2018-05-07T04:39:24.909Z,101985.34
2018-05-07T04:41:50.733Z,101976.98
2018-05-07T04:44:16.539Z,101981.14
2018-05-07T04:46:42.349Z,101984.73
2018-05-07T04:49:08.165Z,101980.02
2018-05-07T04:51:33.976Z,101984.37
2018-05-07T04:53:59.785Z,101985.64
2018-05-07T04:56:25.589Z,101982.92
2018-05-07T04:58:51.537Z,101985.86
2018-05-07T05:01:17.413Z,101984.84
2018-05-07T05:03:43.216Z,101988.05
2018-05-07T05:06:09.021Z,101991.47
2018-05-07T05:08:34.829Z,101995.20
2018-05-07T05:11:00.639Z,101987.41
2018-05-07T05:13:26.453Z,101984.14
2018-05-07T05:15:52.258Z,101991.23
2018-05-07T05:18:18.060Z,101988.83
2018-05-07T05:20:43.945Z,101994.43
2018-05-07T05:23:09.740Z,101987.71
2018-05-07T05:25:35.588Z,101982.47
2018-05-07T05:28:01.389Z,101981.70
2018-05-07T05:30:27.192Z,101977.72
2018-05-07T05:32:52.980Z,101985.30
2018-05-07T05:35:18.782Z,101982.53
2018-05-07T05:37:44.589Z,101987.66
2018-05-07T05:40:10.401Z,101985.80
2018-05-07T05:42:36.200Z,101990.66
2018-05-07T05:45:02.010Z,101991.08
2018-05-07T05:47:27.804Z,101995.55
2018-05-07T05:49:53.625Z,101993.39
2018-05-07T05:52:19.433Z,101993.39
2018-05-07T05:54:50.341Z,101995.93
2018-05-07T05:57:16.141Z,101996.11
2018-05-07T05:59:41.944Z,101995.23
2018-05-07T06:02:07.748Z,101995.35
2018-05-07T06:04:33.551Z,101998.48
2018-05-07T06:06:59.348Z,101999.50
2018-05-07T06:09:25.155Z,101997.22
2018-05-07T06:11:50.957Z,101998.25
2018-05-07T06:14:16.762Z,101993.78
2018-05-07T06:16:42.643Z,101998.55
2018-05-07T06:19:08.403Z,101995.61
2018-05-07T06:21:34.205Z,101994.34
2018-05-07T06:24:00.013Z,101992.46
2018-05-07T06:26:25.817Z,101994.02
2018-05-07T06:28:51.773Z,101993.61
2018-05-07T06:31:17.578Z,101995.77
2018-05-07T06:33:43.380Z,101992.35
2018-05-07T06:36:09.205Z,101992.53
2018-05-07T06:38:35.016Z,101990.26
2018-05-07T06:41:00.857Z,101992.11
2018-05-07T06:43:26.738Z,101991.88
2018-05-07T06:45:52.595Z,101990.16
2018-05-07T06:48:18.394Z,101987.17
2018-05-07T06:50:44.197Z,101988.09
2018-05-07T06:53:10.002Z,101979.23
2018-05-07T06:55:35.803Z,101983.56
2018-05-07T06:58:01.609Z,101982.73
2018-05-07T07:00:27.400Z,101983.45
2018-05-07T07:02:53.373Z,101982.23
2018-05-07T07:05:19.065Z,101982.61
2018-05-07T07:07:44.896Z,101981.34
2018-05-07T07:10:10.693Z,101976.41
2018-05-07T07:12:36.537Z,101975.67
2018-05-07T07:15:02.348Z,101981.81
2018-05-07T07:17:28.177Z,101978.40
2018-05-07T07:19:53.976Z,101976.77
2018-05-07T07:22:19.773Z,101977.92
2018-05-07T07:24:45.636Z,101974.85
2018-05-07T07:27:11.438Z,101977.37
2018-05-07T07:29:37.245Z,101973.77
2018-05-07T07:32:03.068Z,101974.90
2018-05-07T07:34:28.868Z,101971.10
2018-05-07T07:36:54.671Z,101971.65
2018-05-07T07:39:20.508Z,101970.88
2018-05-07T07:41:46.313Z,101971.28
2018-05-07T07:44:20.698Z,101972.61
2018-05-07T07:46:56.640Z,101971.78
2018-05-07T07:49:33.601Z,101975.56
2018-05-07T07:51:59.794Z,101966.78
2018-05-07T07:54:25.597Z,101973.19
2018-05-07T07:56:51.439Z,101970.33
2018-05-07T07:59:17.252Z,101968.58
2018-05-07T08:01:43.164Z,101966.66
2018-05-07T08:04:08.937Z,101965.70
2018-05-07T08:06:35.712Z,101961.19
2018-05-07T08:09:01.565Z,101956.91
2018-05-07T08:11:27.396Z,101955.72
2018-05-07T08:13:53.200Z,101954.39
2018-05-07T08:16:19.001Z,101957.40
2018-05-07T08:18:44.808Z,101953.97
2018-05-07T08:21:10.612Z,101952.22
2018-05-07T08:23:36.413Z,101956.24
2018-05-07T08:26:02.303Z,101957.52
2018-05-07T08:28:28.113Z,101946.48
2018-05-07T08:30:53.916Z,101948.19
2018-05-07T08:33:19.708Z,101946.98
2018-05-07T08:35:45.529Z,101944.22
2018-05-07T08:38:11.499Z,101945.52
2018-05-07T08:40:37.301Z,101944.94
2018-05-07T08:43:03.092Z,101940.97
2018-05-07T08:45:28.893Z,101942.48
2018-05-07T08:47:55.694Z,101937.61
2018-05-07T08:50:21.496Z,101937.96
2018-05-07T08:52:47.323Z,101928.33
2018-05-07T08:55:13.134Z,101926.00
2018-05-07T08:57:38.937Z,101923.46
2018-05-07T09:00:04.785Z,101922.50
2018-05-07T09:02:30.607Z,101918.06
2018-05-07T09:04:56.413Z,101920.91
2018-05-07T09:07:22.218Z,101920.28
2018-05-07T09:09:48.024Z,101909.75
2018-05-07T09:12:13.856Z,101917.77
2018-05-07T09:14:39.656Z,101915.25
2018-05-07T09:17:05.492Z,101910.11
2018-05-07T09:19:31.308Z,101912.72
2018-05-07T09:21:57.117Z,101915.63
2018-05-07T09:24:22.912Z,101910.48
2018-05-07T09:26:48.709Z,101912.73
2018-05-07T09:29:14.528Z,101906.42
2018-05-07T09:31:40.334Z,101898.81
2018-05-07T09:34:06.189Z,101902.30
2018-05-07T09:36:32.039Z,101896.14
2018-05-07T09:38:57.836Z,101894.16
2018-05-07T09:41:23.637Z,101891.01
2018-05-07T09:43:49.434Z,101886.34
2018-05-07T09:46:15.249Z,101880.41
2018-05-07T09:48:41.116Z,101876.17
2018-05-07T09:51:07.194Z,101871.92
2018-05-07T09:53:33.110Z,101870.02
2018-05-07T09:55:58.917Z,101866.53
2018-05-07T09:58:24.762Z,101860.22
2018-05-07T10:00:50.565Z,101859.80
2018-05-07T10:03:16.496Z,101863.19
2018-05-07T10:05:43.264Z,101856.73
2018-05-07T10:08:09.112Z,101851.80
2018-05-07T10:10:34.988Z,101858.90
2018-05-07T10:13:03.921Z,101856.55
2018-05-07T10:15:29.732Z,101851.19
2018-05-07T10:17:55.533Z,101855.70
2018-05-07T10:20:21.333Z,101841.92
2018-05-07T10:22:47.169Z,101851.39
2018-05-07T10:25:13.000Z,101840.25
2018-05-07T10:27:38.805Z,101836.87
2018-05-07T10:30:04.658Z,101842.74
2018-05-07T10:32:30.550Z,101837.97
2018-05-07T10:34:56.413Z,101836.65
2018-05-07T10:37:22.213Z,101834.48
2018-05-07T10:39:48.120Z,101836.53
2018-05-07T10:42:13.927Z,101837.44
2018-05-07T10:44:39.777Z,101838.70
2018-05-07T10:47:05.588Z,101837.90
2018-05-07T10:49:31.399Z,101843.55
2018-05-07T10:51:57.249Z,101832.72
2018-05-07T10:54:23.052Z,101829.25
2018-05-07T10:56:48.863Z,101826.70
2018-05-07T10:59:14.674Z,101824.48
2018-05-07T11:01:40.600Z,101829.25
2018-05-07T11:04:06.437Z,101823.76
2018-05-07T11:06:32.280Z,101817.77
2018-05-07T11:08:58.121Z,101816.61
2018-05-07T11:11:23.937Z,101819.91
2018-05-07T11:13:49.790Z,101817.81
2018-05-07T11:16:15.597Z,101810.47
2018-05-07T11:18:42.561Z,101806.30
2018-05-07T11:21:08.392Z,101794.42
2018-05-07T11:23:34.203Z,101795.07
2018-05-07T11:26:00.008Z,101789.13
2018-05-07T11:28:25.821Z,101789.13
2018-05-07T11:30:51.637Z,101798.36
2018-05-07T11:33:17.481Z,101798.36
2018-05-07T11:35:43.300Z,101783.05
2018-05-07T11:38:09.120Z,101781.47
2018-05-07T11:40:34.973Z,101779.30
2018-05-07T11:43:01.605Z,101784.38
2018-05-07T11:45:27.420Z,101779.08
2018-05-07T11:47:53.233Z,101768.41
2018-05-07T11:50:19.043Z,101769.81
2018-05-07T11:52:44.893Z,101780.69
2018-05-07T11:55:10.706Z,101769.14
2018-05-07T11:57:36.573Z,101768.04
2018-05-07T12:00:02.394Z,101765.53
2018-05-07T12:02:28.324Z,101762.89
2018-05-07T12:04:54.085Z,101764.21
2018-05-07T12:07:19.897Z,101757.36
2018-05-07T12:09:45.704Z,101759.03
2018-05-07T12:12:11.545Z,101756.86
2018-05-07T12:14:37.360Z,101753.42
2018-05-07T12:17:03.165Z,101750.86
2018-05-07T12:19:28.981Z,101752.52
2018-05-07T12:21:54.799Z,101750.27
2018-05-07T12:24:20.632Z,101742.88
2018-05-07T12:26:46.446Z,101736.78
2018-05-07T12:29:12.260Z,101738.92
2018-05-07T12:31:38.202Z,101742.98
2018-05-07T12:34:03.933Z,101732.83
2018-05-07T12:36:29.741Z,101727.09
2018-05-07T12:38:55.557Z,101730.23
2018-05-07T12:41:21.432Z,101724.57
2018-05-07T12:43:47.260Z,101724.09
2018-05-07T12:46:13.122Z,101717.03
2018-05-07T12:48:38.934Z,101713.45
2018-05-07T12:51:04.745Z,101712.66
2018-05-07T12:53:30.553Z,101714.77
2018-05-07T12:55:57.280Z,101708.94
2018-05-07T12:58:23.089Z,101708.09
2018-05-07T13:00:48.940Z,101704.55
2018-05-07T13:03:14.781Z,101699.85
2018-05-07T13:05:40.636Z,101695.12
2018-05-07T13:08:06.436Z,101688.63
2018-05-07T13:10:32.393Z,101693.28
2018-05-07T13:12:58.216Z,101687.08
2018-05-07T13:15:24.043Z,101683.91
2018-05-07T13:17:49.850Z,101670.95
2018-05-07T13:20:15.660Z,101665.33
2018-05-07T13:22:41.473Z,101667.44
2018-05-07T13:25:07.413Z,101672.84
2018-05-07T13:27:33.220Z,101673.19
2018-05-07T13:29:59.024Z,101666.70
2018-05-07T13:32:24.832Z,101662.42
2018-05-07T13:34:50.640Z,101654.26
2018-05-07T13:37:16.452Z,101649.78
2018-05-07T13:39:42.265Z,101656.30
2018-05-07T13:42:08.080Z,101647.80
2018-05-07T13:44:33.888Z,101649.92
2018-05-07T13:46:59.738Z,101642.09
2018-05-07T13:49:25.545Z,101647.38
2018-05-07T13:51:51.354Z,101643.89
2018-05-07T13:54:17.283Z,101637.77
2018-05-07T13:56:43.092Z,101643.95
2018-05-07T13:59:08.918Z,101641.30
2018-05-07T14:01:34.752Z,101630.30
2018-05-07T14:04:01.569Z,101629.03
2018-05-07T14:06:27.392Z,101626.95
2018-05-07T14:08:53.204Z,101627.97
2018-05-07T14:11:19.073Z,101629.03
2018-05-07T14:13:44.889Z,101627.80
2018-05-07T14:16:10.704Z,101622.58
2018-05-07T14:18:37.533Z,101615.64
2018-05-07T14:21:03.417Z,101608.25
2018-05-07T14:23:29.265Z,101617.27
2018-05-07T14:25:55.103Z,101615.69
2018-05-07T14:28:20.924Z,101615.12
2018-05-07T14:30:47.732Z,101610.81
2018-05-07T14:33:13.649Z,101605.72
2018-05-07T14:35:39.460Z,101602.42
2018-05-07T14:38:05.269Z,101603.36
2018-05-07T14:40:31.073Z,101599.29
2018-05-07T14:42:56.880Z,101601.02
2018-05-07T14:45:22.704Z,101599.02
2018-05-07T14:47:48.511Z,101586.62
2018-05-07T14:50:14.403Z,101584.73
2018-05-07T14:52:40.168Z,101589.12
2018-05-07T14:55:05.978Z,101585.45
2018-05-07T14:57:31.781Z,101589.00
2018-05-07T14:59:57.589Z,101582.13
2018-05-07T15:02:23.399Z,101579.34
2018-05-07T15:04:49.209Z,101580.00
2018-05-07T15:07:15.009Z,101578.07
2018-05-07T15:09:40.813Z,101571.45
2018-05-07T15:12:06.620Z,101573.20
2018-05-07T15:14:32.517Z,101564.87
2018-05-07T15:16:58.328Z,101574.56
2018-05-07T15:19:24.137Z,101564.87
2018-05-07T15:21:49.966Z,101566.38
2018-05-07T15:24:15.772Z,101563.82
2018-05-07T15:26:41.585Z,101565.11
2018-05-07T15:29:07.451Z,101558.59
2018-05-07T15:31:33.258Z,101563.91
2018-05-07T15:33:59.071Z,101562.28
2018-05-07T15:36:24.987Z,101564.03
2018-05-07T15:38:50.780Z,101552.88
2018-05-07T15:41:16.580Z,101550.22
2018-05-07T15:43:42.496Z,101565.98
2018-05-07T15:46:08.238Z,101555.41
2018-05-07T15:48:34.044Z,101552.84
2018-05-07T15:50:59.850Z,101558.11
2018-05-07T15:53:25.696Z,101547.91
2018-05-07T15:55:51.590Z,101545.48
2018-05-07T15:58:17.475Z,101542.37
2018-05-07T16:00:43.316Z,101538.95
2018-05-07T16:03:09.229Z,101536.58
2018-05-07T16:05:35.138Z,101535.04
2018-05-07T16:08:01.064Z,101527.61
2018-05-07T16:10:26.885Z,101534.02
2018-05-07T16:12:52.721Z,101527.20
2018-05-07T16:15:18.647Z,101528.58
2018-05-07T16:17:44.416Z,101526.98
2018-05-07T16:20:10.235Z,101528.87
2018-05-07T16:22:36.103Z,101523.86
2018-05-07T16:25:01.923Z,101522.92
2018-05-07T16:27:27.728Z,101520.73
2018-05-07T16:29:53.532Z,101520.28
2018-05-07T16:32:19.400Z,101525.96
2018-05-07T16:34:45.214Z,101527.97
2018-05-07T16:37:11.031Z,101521.96
2018-05-07T16:39:36.840Z,101518.47
2018-05-07T16:42:02.645Z,101514.08
2018-05-07T16:44:28.481Z,101515.55
2018-05-07T16:46:54.284Z,101507.11
2018-05-07T16:49:20.090Z,101513.06
2018-05-07T16:51:45.904Z,101506.66
2018-05-07T16:54:11.748Z,101508.88
2018-05-07T16:56:37.554Z,101508.36
2018-05-07T16:59:03.360Z,101504.70
2018-05-07T17:01:29.165Z,101503.56
2018-05-07T17:03:54.969Z,101504.48
2018-05-07T17:06:20.781Z,101504.55
2018-05-07T17:08:46.671Z,101497.94
2018-05-07T17:11:12.485Z,101498.47
2018-05-07T17:13:38.372Z,101494.05
2018-05-07T17:16:04.193Z,101502.86
2018-05-07T17:18:29.998Z,101493.88
2018-05-07T17:20:55.814Z,101495.14
2018-05-07T17:23:21.657Z,101498.20
2018-05-07T17:25:47.600Z,101497.63
2018-05-07T17:28:13.320Z,101502.50
2018-05-07T17:30:39.121Z,101499.83
2018-05-07T17:33:04.925Z,101504.81
2018-05-07T17:35:30.786Z,101500.12
2018-05-07T17:37:56.600Z,101503.41
2018-05-07T17:40:22.425Z,101505.23
2018-05-07T17:42:48.234Z,101498.02
2018-05-07T17:45:17.980Z,101501.18
2018-05-07T17:47:50.026Z,101504.39
2018-05-07T17:50:15.831Z,101499.55
2018-05-07T17:52:41.642Z,101506.11
2018-05-07T17:55:07.449Z,101499.44
2018-05-07T17:57:33.261Z,101499.64
2018-05-07T17:59:59.140Z,101501.03
2018-05-07T18:02:24.917Z,101504.61
2018-05-07T18:04:50.756Z,101500.16
2018-05-07T18:07:16.605Z,101496.84
2018-05-07T18:09:42.908Z,101495.20
2018-05-07T18:12:08.717Z,101498.20
2018-05-07T18:14:34.526Z,101498.63
2018-05-07T18:17:00.369Z,101490.59
2018-05-07T18:19:26.187Z,101493.06
2018-05-07T18:21:52.234Z,101489.06
2018-05-07T18:24:18.145Z,101492.91
2018-05-07T18:26:48.345Z,101491.77
2018-05-07T18:29:14.157Z,101487.62
2018-05-07T18:31:40.106Z,101489.09
2018-05-07T18:34:05.924Z,101494.02
2018-05-07T18:36:31.962Z,101488.58
2018-05-07T18:38:57.834Z,101488.52
2018-05-07T18:41:23.645Z,101488.46
2018-05-07T18:43:49.464Z,101491.08
2018-05-07T18:46:15.274Z,101491.31
2018-05-07T18:48:41.106Z,101488.16
2018-05-07T18:51:07.082Z,101491.48
2018-05-07T18:53:32.896Z,101492.85
2018-05-07T18:55:58.710Z,101490.49
2018-05-07T18:58:24.517Z,101493.44
2018-05-07T19:00:50.406Z,101496.16
2018-05-07T19:03:16.229Z,101496.72
2018-05-07T19:05:42.101Z,101496.80
2018-05-07T19:08:07.907Z,101498.55
2018-05-07T19:10:33.888Z,101497.61
2018-05-07T19:12:59.758Z,101494.78
2018-05-07T19:15:25.564Z,101496.95
2018-05-07T19:17:51.518Z,101489.77
2018-05-07T19:20:17.496Z,101492.81
2018-05-07T19:22:43.661Z,101496.65
2018-05-07T19:25:09.628Z,101503.63
2018-05-07T19:27:35.567Z,101497.97
2018-05-07T19:30:01.395Z,101499.84
2018-05-07T19:32:27.208Z,101502.10
2018-05-07T19:34:53.013Z,101492.05
2018-05-07T19:37:18.829Z,101491.69
2018-05-07T19:39:44.804Z,101493.08
2018-05-07T19:42:10.671Z,101494.89
2018-05-07T19:44:36.482Z,101500.34
2018-05-07T19:47:02.395Z,101489.81
2018-05-07T19:49:28.202Z,101488.00
2018-05-07T19:51:54.006Z,101484.31
2018-05-07T19:54:19.828Z,101485.48
2018-05-07T19:56:45.708Z,101486.80
2018-05-07T19:59:11.545Z,101478.47
2018-05-07T20:01:37.398Z,101481.78
2018-05-07T20:04:03.214Z,101479.77
2018-05-07T20:06:29.091Z,101485.43
2018-05-07T20:08:54.896Z,101489.31
2018-05-07T20:11:20.704Z,101482.30
2018-05-07T20:13:46.512Z,101486.16
2018-05-07T20:16:12.357Z,101482.06
2018-05-07T20:18:38.204Z,101485.55
2018-05-07T20:21:04.012Z,101480.44
2018-05-07T20:23:30.017Z,101471.69
2018-05-07T20:25:55.821Z,101475.01
2018-05-07T20:28:21.694Z,101468.96
2018-05-07T20:30:47.500Z,101464.84
2018-05-07T20:33:13.395Z,101463.91
2018-05-07T20:35:39.152Z,101458.73
2018-05-07T20:38:04.960Z,101461.69
2018-05-07T20:40:30.764Z,101464.36
2018-05-07T20:42:56.572Z,101466.11
2018-05-07T20:45:22.381Z,101470.98
2018-05-07T20:47:48.194Z,101473.94
2018-05-07T20:50:14.048Z,101471.17
2018-05-07T20:52:39.869Z,101476.77
2018-05-07T20:55:05.720Z,101478.51
2018-05-07T20:57:31.544Z,101476.05
2018-05-07T20:59:57.369Z,101471.98
2018-05-07T21:02:23.172Z,101466.63
2018-05-07T21:04:49.112Z,101466.91
2018-05-07T21:07:14.925Z,101472.33
2018-05-07T21:09:40.866Z,101466.70
2018-05-07T21:12:06.705Z,101465.59
2018-05-07T21:14:32.533Z,101469.28
2018-05-07T21:16:58.448Z,101465.44
2018-05-07T21:19:24.260Z,101466.15
2018-05-07T21:21:50.076Z,101462.54
2018-05-07T21:24:16.219Z,101466.09
2018-05-07T21:26:42.040Z,101463.08
2018-05-07T21:29:07.853Z,101460.98
2018-05-07T21:31:33.657Z,101458.27
2018-05-07T21:33:59.466Z,101465.85
2018-05-07T21:36:25.806Z,101461.34
2018-05-07T21:38:51.613Z,101467.66
2018-05-07T21:41:17.540Z,101467.52
2018-05-07T21:43:43.354Z,101468.45
2018-05-07T21:46:09.720Z,101467.94
2018-05-07T21:48:35.524Z,101473.99
2018-05-07T21:51:01.329Z,101472.42
2018-05-07T21:53:27.142Z,101467.94
2018-05-07T21:55:52.959Z,101466.95
2018-05-07T21:58:18.849Z,101473.78
2018-05-07T22:00:44.657Z,101465.36
2018-05-07T22:03:10.637Z,101457.90
2018-05-07T22:05:36.480Z,101465.96
2018-05-07T22:08:02.310Z,101466.38
2018-05-07T22:10:28.152Z,101469.33
2018-05-07T22:12:53.956Z,101466.26
2018-05-07T22:15:19.760Z,101477.36
2018-05-07T22:17:47.031Z,101470.33
2018-05-07T22:20:13.002Z,101471.08
2018-05-07T22:22:38.911Z,101460.13
2018-05-07T22:25:04.713Z,101462.72
2018-05-07T22:27:30.566Z,101458.80
2018-05-07T22:29:56.379Z,101463.77
2018-05-07T22:32:22.226Z,101459.77
2018-05-07T22:34:48.029Z,101464.10
2018-05-07T22:37:13.902Z,101462.12
2018-05-07T22:39:40.411Z,101459.00
2018-05-07T22:42:06.217Z,101458.17
2018-05-07T22:44:32.060Z,101461.45
2018-05-07T22:46:57.868Z,101461.03
2018-05-07T22:49:23.718Z,101457.91
2018-05-07T22:51:49.519Z,101455.47
2018-05-07T22:54:15.369Z,101457.81
2018-05-07T22:56:41.187Z,101457.85
2018-05-07T22:59:07.069Z,101453.70
2018-05-07T23:01:32.880Z,101450.16
2018-05-07T23:03:58.685Z,101448.95
2018-05-07T23:06:24.529Z,101450.09
2018-05-07T23:08:50.341Z,101450.76
2018-05-07T23:11:16.149Z,101443.18
2018-05-07T23:13:42.002Z,101444.35
2018-05-07T23:16:07.954Z,101448.34
2018-05-07T23:18:33.762Z,101443.96
2018-05-07T23:20:59.622Z,101450.70
2018-05-07T23:23:25.424Z,101445.67
2018-05-07T23:25:51.293Z,101444.72
2018-05-07T23:28:17.100Z,101446.28
2018-05-07T23:30:42.981Z,101444.78
2018-05-07T23:33:08.780Z,101446.45
2018-05-07T23:35:34.593Z,101446.52
2018-05-07T23:38:00.472Z,101448.86
2018-05-07T23:40:26.282Z,101444.41
2018-05-07T23:42:52.089Z,101437.17
2018-05-07T23:45:17.992Z,101445.50
2018-05-07T23:47:43.797Z,101440.15
2018-05-07T23:50:09.605Z,101449.05
2018-05-07T23:52:35.413Z,101442.34
2018-05-07T23:55:01.223Z,101444.14
2018-05-07T23:57:27.025Z,101437.95
2018-05-07T23:59:52.887Z,101440.33
